Time;durP1;ratioP1;P1;durP2;ratioP2;P2;SDS_P1;SDS_P2;PMS_P1;PMS_P2;Temp;Humidity;BMP_temperature;BMP_pressure;BME280_temperature;BME280_humidity;BME280_pressure;Samples;Min_cycle;Max_cycle;Signal;HPM_P1;HPM_P2
2022/05/06 00:01:44;;;;;;;0.70;0.60;;;;;;;;;;5058565;28;20435;-75
2022/05/06 00:04:14;;;;;;;0.70;0.60;;;;;;;;;;5076159;28;20427;-75
2022/05/06 00:06:42;;;;;;;0.70;0.63;;;;;;;;;;5074084;28;20471;-75
2022/05/06 00:09:09;;;;;;;0.70;0.60;;;;;;;;;;5092490;28;20426;-75
2022/05/06 00:11:37;;;;;;;0.70;0.60;;;;;;;;;;5075298;28;20446;-74
2022/05/06 00:14:05;;;;;;;0.70;0.60;;;;;;;;;;5057371;28;20830;-77
2022/05/06 00:16:31;;;;;;;0.70;0.70;;;;;;;;;;5057189;28;20546;-77
2022/05/06 00:18:59;;;;;;;0.70;0.57;;;;;;;;;;5075098;28;20468;-75
2022/05/06 00:21:26;;;;;;;0.80;0.80;;;;;;;;;;5080384;28;20466;-74
2022/05/06 00:23:54;;;;;;;0.70;0.60;;;;;;;;;;5058231;28;20500;-75
2022/05/06 00:26:21;;;;;;;0.70;0.60;;;;;;;;;;5073590;28;20536;-75
2022/05/06 00:28:49;;;;;;;0.70;0.60;;;;;;;;;;5074996;28;20465;-75
2022/05/06 00:31:16;;;;;;;0.70;0.70;;;;;;;;;;5074566;28;20926;-75
2022/05/06 00:33:43;;;;;;;0.80;0.80;;;;;;;;;;5058242;28;20974;-76
2022/05/06 00:36:11;;;;;;;0.70;0.60;;;;;;;;;;5073933;28;20663;-76
2022/05/06 00:38:38;;;;;;;0.70;0.60;;;;;;;;;;5090676;28;20524;-74
2022/05/06 00:41:04;;;;;;;0.70;0.60;;;;;;;;;;5074704;28;20443;-75
2022/05/06 00:43:31;;;;;;;0.70;0.60;;;;;;;;;;5074654;28;20462;-75
2022/05/06 00:46:00;;;;;;;0.70;0.60;;;;;;;;;;5074005;28;20462;-75
2022/05/06 00:48:28;;;;;;;0.70;0.60;;;;;;;;;;5057253;28;20431;-75
2022/05/06 00:50:58;;;;;;;0.70;0.60;;;;;;;;;;5073440;28;20460;-76
2022/05/06 00:53:27;;;;;;;0.70;0.60;;;;;;;;;;5074609;28;20565;-75
2022/05/06 00:55:58;;;;;;;0.70;0.60;;;;;;;;;;5090486;28;20525;-75
2022/05/06 00:58:30;;;;;;;0.70;0.60;;;;;;;;;;5073012;28;20466;-74
2022/05/06 01:01:01;;;;;;;0.70;0.60;;;;;;;;;;5073505;28;20789;-74
2022/05/06 01:03:32;;;;;;;0.70;0.60;;;;;;;;;;5074319;28;20451;-75
2022/05/06 01:06:06;;;;;;;0.70;0.70;;;;;;;;;;5056013;28;20475;-74
2022/05/06 01:08:35;;;;;;;0.70;0.60;;;;;;;;;;5074428;28;20218;-74
2022/05/06 01:11:05;;;;;;;0.70;0.60;;;;;;;;;;5073607;28;20452;-75
2022/05/06 01:13:38;;;;;;;0.70;0.60;;;;;;;;;;5074272;28;20212;-75
2022/05/06 01:16:09;;;;;;;0.70;0.60;;;;;;;;;;5072167;28;20484;-75
2022/05/06 01:18:43;;;;;;;0.70;0.60;;;;;;;;;;5058071;28;20476;-76
2022/05/06 01:21:17;;;;;;;0.70;0.60;;;;;;;;;;5057040;28;20496;-75
2022/05/06 01:23:47;;;;;;;0.70;0.70;;;;;;;;;;5053655;28;20451;-76
2022/05/06 01:26:16;;;;;;;0.70;0.70;;;;;;;;;;5058148;28;20235;-75
2022/05/06 01:28:45;;;;;;;1.17;1.07;;;;;;;;;;5056477;28;20442;-76
2022/05/06 01:31:19;;;;;;;0.70;0.60;;;;;;;;;;5073740;28;20453;-75
2022/05/06 01:33:55;;;;;;;0.70;0.70;;;;;;;;;;5072257;28;20442;-75
2022/05/06 01:36:28;;;;;;;0.70;0.70;;;;;;;;;;5058932;28;20578;-75
2022/05/06 01:39:00;;;;;;;0.70;0.60;;;;;;;;;;5073788;28;20207;-75
2022/05/06 01:41:40;;;;;;;0.70;0.60;;;;;;;;;;5072896;28;20203;-75
2022/05/06 01:44:14;;;;;;;0.70;0.60;;;;;;;;;;5071563;28;20446;-75
2022/05/06 01:46:46;;;;;;;0.70;0.60;;;;;;;;;;5055324;28;20201;-74
2022/05/06 01:49:23;;;;;;;0.73;0.65;;;;;;;;;;5073196;28;20278;-76
2022/05/06 01:51:55;;;;;;;0.70;0.60;;;;;;;;;;5071814;28;20219;-75
2022/05/06 01:54:28;;;;;;;0.70;0.63;;;;;;;;;;5054604;28;20245;-74
2022/05/06 01:56:58;;;;;;;0.70;0.70;;;;;;;;;;5088001;28;20195;-75
2022/05/06 01:59:27;;;;;;;0.70;0.70;;;;;;;;;;5072569;28;20221;-75
2022/05/06 02:02:09;;;;;;;0.70;0.60;;;;;;;;;;5038406;28;20225;-75
2022/05/06 02:07:28;;;;;;;0.70;0.60;;;;;;;;;;5071314;28;20560;-75
2022/05/06 02:09:59;;;;;;;0.70;0.70;;;;;;;;;;5088966;28;20224;-75
2022/05/06 02:12:34;;;;;;;0.70;0.60;;;;;;;;;;5065928;28;20224;-76
2022/05/06 02:15:24;;;;;;;0.70;0.70;;;;;;;;;;5037592;28;20447;-74
2022/05/06 02:17:53;;;;;;;0.70;0.70;;;;;;;;;;5072830;28;20204;-75
2022/05/06 02:20:40;;;;;;;0.70;0.60;;;;;;;;;;5074363;28;20543;-76
2022/05/06 02:23:22;;;;;;;0.75;0.73;;;;;;;;;;5057398;28;20214;-76
2022/05/06 02:26:22;;;;;;;0.70;0.60;;;;;;;;;;5047900;28;20189;-77
2022/05/06 02:28:56;;;;;;;0.70;0.70;;;;;;;;;;5051748;28;20189;-75
2022/05/06 02:34:16;;;;;;;0.70;0.60;;;;;;;;;;5075755;28;20273;-75
2022/05/06 02:36:57;;;;;;;0.80;0.70;;;;;;;;;;5072167;28;20506;-75
2022/05/06 02:39:37;;;;;;;0.70;0.60;;;;;;;;;;5063951;28;20656;-75
2022/05/06 02:42:12;;;;;;;0.70;0.60;;;;;;;;;;5068794;28;20212;-75
2022/05/06 02:44:46;;;;;;;0.70;0.70;;;;;;;;;;5071673;28;20187;-76
2022/05/06 02:47:14;;;;;;;0.70;0.60;;;;;;;;;;5054421;28;20231;-75
2022/05/06 02:49:41;;;;;;;0.70;0.60;;;;;;;;;;5089512;28;20197;-75
2022/05/06 02:52:11;;;;;;;0.70;0.70;;;;;;;;;;5071846;28;20208;-76
2022/05/06 02:54:40;;;;;;;0.70;0.60;;;;;;;;;;5054762;28;20709;-75
2022/05/06 02:57:11;;;;;;;0.70;0.60;;;;;;;;;;5051967;28;20198;-76
2022/05/06 02:59:41;;;;;;;0.70;0.70;;;;;;;;;;5058511;28;20260;-75
2022/05/06 03:02:08;;;;;;;0.70;0.70;;;;;;;;;;5069083;28;20627;-75
2022/05/06 03:04:36;;;;;;;0.70;0.70;;;;;;;;;;5069985;28;20201;-76
2022/05/06 03:07:06;;;;;;;0.70;0.70;;;;;;;;;;5072088;28;20223;-75
2022/05/06 03:09:42;;;;;;;0.70;0.60;;;;;;;;;;5088621;28;20185;-75
2022/05/06 03:12:09;;;;;;;0.80;0.70;;;;;;;;;;5070687;28;20284;-75
2022/05/06 03:14:47;;;;;;;0.70;0.68;;;;;;;;;;5076077;28;20221;-75
2022/05/06 03:17:28;;;;;;;0.70;0.70;;;;;;;;;;5057746;28;20201;-76
2022/05/06 03:19:55;;;;;;;0.70;0.60;;;;;;;;;;5055420;28;20553;-76
2022/05/06 03:22:23;;;;;;;0.70;0.70;;;;;;;;;;5053883;28;20887;-77
2022/05/06 03:24:50;;;;;;;0.70;0.70;;;;;;;;;;5054917;28;20203;-76
2022/05/06 03:30:04;;;;;;;0.70;0.60;;;;;;;;;;5092058;28;20544;-75
2022/05/06 03:32:33;;;;;;;0.70;0.60;;;;;;;;;;5058995;28;20192;-76
2022/05/06 03:35:00;;;;;;;0.70;0.60;;;;;;;;;;5075073;28;20219;-76
2022/05/06 03:37:27;;;;;;;0.70;0.60;;;;;;;;;;5059147;28;20616;-77
2022/05/06 03:39:54;;;;;;;0.70;0.68;;;;;;;;;;5074657;28;20223;-76
2022/05/06 03:42:22;;;;;;;0.70;0.60;;;;;;;;;;5069516;28;20212;-76
2022/05/06 03:44:49;;;;;;;0.70;0.65;;;;;;;;;;5063124;28;20193;-75
2022/05/06 03:47:21;;;;;;;0.70;0.68;;;;;;;;;;5074045;28;20254;-76
2022/05/06 03:51:20;;;;;;;0.70;0.60;;;;;;;;;;5085287;28;20602;-75
2022/05/06 03:52:36;;;;;;;0.70;0.60;;;;;;;;;;5075838;28;20213;-76
2022/05/06 03:55:02;;;;;;;0.70;0.70;;;;;;;;;;5075715;28;20677;-76
2022/05/06 03:57:30;;;;;;;0.70;0.60;;;;;;;;;;5056650;28;20232;-76
2022/05/06 03:59:57;;;;;;;0.70;0.60;;;;;;;;;;5058448;28;20216;-77
2022/05/06 04:02:34;;;;;;;0.70;0.70;;;;;;;;;;5076929;28;20619;-76
2022/05/06 04:05:01;;;;;;;0.70;0.60;;;;;;;;;;5058797;28;20193;-76
2022/05/06 04:07:28;;;;;;;0.70;0.60;;;;;;;;;;5073174;28;20232;-76
2022/05/06 04:09:55;;;;;;;0.70;0.70;;;;;;;;;;5057973;28;20189;-77
2022/05/06 04:12:23;;;;;;;0.70;0.60;;;;;;;;;;5053890;28;20216;-77
2022/05/06 04:14:58;;;;;;;0.70;0.60;;;;;;;;;;5038797;28;20671;-77
2022/05/06 04:17:26;;;;;;;0.70;0.60;;;;;;;;;;5086240;28;20232;-77
2022/05/06 04:25:28;;;;;;;0.70;0.60;;;;;;;;;;5061395;28;20176;-78
2022/05/06 04:27:56;;;;;;;0.70;0.70;;;;;;;;;;5084604;28;20204;-77
2022/05/06 04:30:24;;;;;;;0.70;0.70;;;;;;;;;;5074950;28;20271;-77
2022/05/06 04:33:00;;;;;;;0.70;0.70;;;;;;;;;;5059491;28;20262;-77
2022/05/06 04:35:29;;;;;;;0.70;0.60;;;;;;;;;;5062881;28;20202;-78
2022/05/06 04:38:01;;;;;;;0.70;0.60;;;;;;;;;;5075503;28;20196;-78
2022/05/06 04:40:33;;;;;;;0.70;0.70;;;;;;;;;;5072786;28;20231;-77
2022/05/06 04:43:03;;;;;;;0.70;0.60;;;;;;;;;;5072622;28;20205;-75
2022/05/06 04:45:35;;;;;;;0.70;0.60;;;;;;;;;;5056647;28;20279;-75
2022/05/06 04:48:06;;;;;;;0.70;0.70;;;;;;;;;;5040003;28;20201;-77
2022/05/06 04:50:38;;;;;;;0.70;0.65;;;;;;;;;;5072710;28;20181;-76
2022/05/06 04:53:09;;;;;;;0.70;0.60;;;;;;;;;;5089576;28;20184;-77
2022/05/06 04:55:37;;;;;;;0.70;0.60;;;;;;;;;;5072705;28;20197;-77
2022/05/06 04:58:07;;;;;;;0.70;0.70;;;;;;;;;;5058067;28;20189;-76
2022/05/06 05:00:35;;;;;;;0.70;0.65;;;;;;;;;;5074580;28;20217;-77
2022/05/06 05:03:02;;;;;;;0.70;0.60;;;;;;;;;;5057358;28;20193;-77
2022/05/06 05:05:29;;;;;;;0.70;0.60;;;;;;;;;;5072863;28;20205;-77
2022/05/06 05:07:59;;;;;;;0.70;0.60;;;;;;;;;;5091046;28;20193;-77
2022/05/06 05:10:27;;;;;;;0.70;0.60;;;;;;;;;;5072552;28;20279;-77
2022/05/06 05:12:53;;;;;;;0.98;0.98;;;;;;;;;;5074261;28;20211;-76
2022/05/06 05:15:25;;;;;;;0.70;0.70;;;;;;;;;;5072185;28;20246;-75
2022/05/06 05:17:52;;;;;;;0.70;0.60;;;;;;;;;;5057604;28;20201;-77
2022/05/06 05:20:19;;;;;;;0.60;0.50;;;;;;;;;;5073857;28;20212;-76
2022/05/06 05:22:46;;;;;;;0.70;0.60;;;;;;;;;;5073869;28;20583;-78
2022/05/06 05:25:19;;;;;;;0.68;0.60;;;;;;;;;;5089868;28;20203;-77
2022/05/06 05:27:49;;;;;;;0.70;0.70;;;;;;;;;;5058056;28;20190;-76
2022/05/06 05:30:42;;;;;;;0.70;0.60;;;;;;;;;;5072147;28;20203;-77
2022/05/06 05:33:10;;;;;;;0.70;0.60;;;;;;;;;;5090002;28;20548;-77
2022/05/06 05:35:46;;;;;;;0.70;0.60;;;;;;;;;;5072585;28;20480;-76
2022/05/06 05:38:14;;;;;;;0.70;0.60;;;;;;;;;;5073774;28;20447;-77
2022/05/06 05:40:43;;;;;;;0.70;0.60;;;;;;;;;;5073478;28;20877;-76
2022/05/06 05:48:51;;;;;;;0.83;0.77;;;;;;;;;;5070199;28;20436;-76
2022/05/06 05:51:18;;;;;;;0.67;0.60;;;;;;;;;;5052643;28;20468;-76
2022/05/06 05:53:51;;;;;;;0.70;0.60;;;;;;;;;;5037007;28;20439;-75
2022/05/06 05:56:21;;;;;;;0.60;0.60;;;;;;;;;;5069312;28;20428;-76
2022/05/06 05:58:52;;;;;;;0.70;0.60;;;;;;;;;;5054192;28;21066;-76
2022/05/06 06:01:21;;;;;;;0.70;0.60;;;;;;;;;;5037189;28;20496;-76
2022/05/06 06:03:49;;;;;;;0.67;0.60;;;;;;;;;;5052509;28;20436;-74
2022/05/06 06:06:18;;;;;;;0.60;0.50;;;;;;;;;;5063692;28;20466;-75
2022/05/06 06:08:49;;;;;;;0.60;0.60;;;;;;;;;;5056874;28;20457;-76
2022/05/06 06:11:17;;;;;;;0.70;0.60;;;;;;;;;;5072475;28;20866;-76
2022/05/06 06:13:48;;;;;;;0.70;0.67;;;;;;;;;;5071747;28;20435;-74
2022/05/06 06:16:19;;;;;;;0.70;0.60;;;;;;;;;;5056777;28;20446;-75
2022/05/06 06:18:48;;;;;;;0.70;0.60;;;;;;;;;;5072978;28;20961;-75
2022/05/06 06:21:17;;;;;;;0.70;0.60;;;;;;;;;;5057054;28;20473;-75
2022/05/06 06:23:46;;;;;;;0.70;0.60;;;;;;;;;;5072931;28;20450;-74
2022/05/06 06:26:13;;;;;;;0.90;0.90;;;;;;;;;;5056070;28;20447;-74
2022/05/06 06:28:40;;;;;;;0.70;0.50;;;;;;;;;;5054603;28;20535;-73
2022/05/06 06:31:12;;;;;;;0.70;0.63;;;;;;;;;;5053911;28;20959;-76
2022/05/06 06:33:40;;;;;;;0.70;0.70;;;;;;;;;;5072473;28;20450;-76
2022/05/06 06:36:13;;;;;;;0.70;0.60;;;;;;;;;;5089372;28;20481;-75
2022/05/06 06:38:40;;;;;;;0.70;0.60;;;;;;;;;;5055748;28;20532;-74
2022/05/06 06:41:09;;;;;;;0.70;0.60;;;;;;;;;;5055759;28;20466;-74
2022/05/06 06:43:40;;;;;;;0.70;0.60;;;;;;;;;;5069254;28;20444;-74
2022/05/06 06:46:33;;;;;;;0.70;0.60;;;;;;;;;;5052856;28;20528;-76
2022/05/06 06:49:22;;;;;;;0.70;0.60;;;;;;;;;;5051304;28;20442;-75
2022/05/06 06:52:13;;;;;;;0.70;0.60;;;;;;;;;;5038412;28;20463;-73
2022/05/06 06:54:40;;;;;;;0.70;0.70;;;;;;;;;;5052396;28;20459;-75
2022/05/06 06:57:07;;;;;;;1.00;0.90;;;;;;;;;;5052887;28;20427;-74
2022/05/06 06:59:34;;;;;;;0.80;0.80;;;;;;;;;;5034887;28;20496;-74
2022/05/06 07:02:03;;;;;;;0.70;0.60;;;;;;;;;;5052302;28;21034;-75
2022/05/06 07:04:30;;;;;;;0.70;0.70;;;;;;;;;;5051927;28;20466;-75
2022/05/06 07:12:29;;;;;;;0.70;0.60;;;;;;;;;;5062755;28;20479;-75
2022/05/06 07:14:55;;;;;;;1.10;0.80;;;;;;;;;;5088158;28;20459;-75
2022/05/06 07:17:24;;;;;;;1.27;1.17;;;;;;;;;;5073576;28;20412;-76
2022/05/06 07:19:50;;;;;;;1.13;1.03;;;;;;;;;;5088482;28;20552;-75
2022/05/06 07:22:18;;;;;;;1.00;0.90;;;;;;;;;;5071751;28;20470;-77
2022/05/06 07:24:53;;;;;;;0.70;0.60;;;;;;;;;;5070671;28;20451;-74
2022/05/06 07:27:21;;;;;;;0.70;0.63;;;;;;;;;;5054027;28;20457;-74
2022/05/06 07:29:47;;;;;;;0.77;0.70;;;;;;;;;;5073121;28;20459;-75
2022/05/06 07:32:15;;;;;;;1.47;1.20;;;;;;;;;;5072192;28;20795;-73
2022/05/06 07:34:43;;;;;;;0.90;0.90;;;;;;;;;;5054830;28;20444;-74
2022/05/06 07:37:10;;;;;;;0.70;0.70;;;;;;;;;;5054346;28;20475;-75
2022/05/06 07:39:37;;;;;;;0.70;0.67;;;;;;;;;;5073220;28;20470;-75
2022/05/06 07:42:10;;;;;;;0.80;0.70;;;;;;;;;;5072339;28;20483;-75
2022/05/06 07:44:37;;;;;;;1.00;1.00;;;;;;;;;;5071902;28;20448;-76
2022/05/06 07:47:05;;;;;;;0.93;0.93;;;;;;;;;;5053516;28;20540;-75
2022/05/06 07:49:32;;;;;;;1.17;1.00;;;;;;;;;;5072013;28;20458;-74
2022/05/06 07:52:02;;;;;;;0.70;0.70;;;;;;;;;;5072705;28;20525;-76
2022/05/06 07:54:30;;;;;;;1.00;0.87;;;;;;;;;;5071950;28;20471;-75
2022/05/06 07:56:58;;;;;;;0.80;0.70;;;;;;;;;;5073406;28;20427;-74
2022/05/06 07:59:25;;;;;;;0.70;0.67;;;;;;;;;;5073077;28;20515;-73
2022/05/06 08:04:40;;;;;;;1.03;0.97;;;;;;;;;;5073127;28;20886;-75
2022/05/06 08:07:08;;;;;;;1.77;0.97;;;;;;;;;;5054543;28;20472;-75
2022/05/06 08:09:35;;;;;;;1.10;1.00;;;;;;;;;;5054986;28;20480;-75
2022/05/06 08:12:02;;;;;;;0.70;0.60;;;;;;;;;;5081647;28;20511;-75
2022/05/06 08:14:30;;;;;;;0.70;0.70;;;;;;;;;;5096341;28;20468;-74
2022/05/06 08:16:57;;;;;;;0.70;0.60;;;;;;;;;;5079029;28;20483;-75
2022/05/06 08:19:23;;;;;;;1.00;1.00;;;;;;;;;;5095533;28;20441;-77
2022/05/06 08:21:50;;;;;;;1.27;1.10;;;;;;;;;;5111446;28;20482;-76
2022/05/06 08:24:19;;;;;;;0.97;0.90;;;;;;;;;;5079601;28;20482;-75
2022/05/06 08:26:47;;;;;;;1.20;1.10;;;;;;;;;;5078855;28;20938;-75
2022/05/06 08:29:14;;;;;;;1.20;1.10;;;;;;;;;;5096855;28;20435;-75
2022/05/06 08:31:46;;;;;;;1.27;0.90;;;;;;;;;;5107536;28;20830;-74
2022/05/06 08:34:13;;;;;;;0.80;0.80;;;;;;;;;;5056789;28;20430;-74
2022/05/06 08:36:45;;;;;;;2.30;1.83;;;;;;;;;;5071730;28;20448;-76
2022/05/06 08:39:12;;;;;;;1.57;1.47;;;;;;;;;;5074417;28;20438;-76
2022/05/06 08:41:41;;;;;;;1.50;1.13;;;;;;;;;;5058709;28;20505;-74
2022/05/06 08:52:31;;;;;;;0.80;0.73;;;;;;;;;;5090977;28;20542;-74
2022/05/06 08:54:58;;;;;;;1.40;1.27;;;;;;;;;;5088099;28;20537;-74
2022/05/06 08:57:27;;;;;;;0.97;0.87;;;;;;;;;;5071249;28;20471;-73
2022/05/06 08:59:54;;;;;;;1.10;1.00;;;;;;;;;;5055665;28;20474;-75
2022/05/06 09:02:22;;;;;;;1.70;1.60;;;;;;;;;;5071918;28;20450;-72
2022/05/06 09:04:49;;;;;;;1.50;1.10;;;;;;;;;;5071500;28;20724;-74
2022/05/06 09:07:19;;;;;;;0.77;0.70;;;;;;;;;;5054221;28;21058;-74
2022/05/06 09:10:04;;;;;;;1.10;0.87;;;;;;;;;;5037475;28;20459;-74
2022/05/06 09:12:41;;;;;;;1.40;1.30;;;;;;;;;;5068264;28;20458;-75
2022/05/06 09:17:56;;;;;;;0.83;0.80;;;;;;;;;;5074346;28;20827;-74
2022/05/06 09:20:24;;;;;;;1.47;1.10;;;;;;;;;;5073633;28;20478;-74
2022/05/06 09:22:51;;;;;;;1.37;1.27;;;;;;;;;;5074231;28;20958;-74
2022/05/06 09:25:33;;;;;;;0.80;0.70;;;;;;;;;;5056916;28;20477;-73
2022/05/06 09:28:02;;;;;;;1.73;1.63;;;;;;;;;;5089620;28;20459;-71
2022/05/06 09:30:29;;;;;;;0.90;0.90;;;;;;;;;;5074248;28;20429;-74
2022/05/06 09:32:56;;;;;;;1.33;1.17;;;;;;;;;;5073742;28;20443;-73
2022/05/06 09:35:25;;;;;;;1.10;1.00;;;;;;;;;;5057322;28;20471;-73
2022/05/06 09:37:53;;;;;;;2.30;2.10;;;;;;;;;;5074295;28;20435;-75
2022/05/06 09:40:28;;;;;;;1.30;1.13;;;;;;;;;;5056702;28;20486;-74
2022/05/06 09:42:59;;;;;;;0.70;0.60;;;;;;;;;;5074836;28;20447;-74
2022/05/06 09:45:33;;;;;;;1.10;1.00;;;;;;;;;;5056319;28;20432;-74
2022/05/06 09:48:08;;;;;;;1.13;1.03;;;;;;;;;;5090594;28;20443;-73
2022/05/06 09:50:39;;;;;;;1.40;1.30;;;;;;;;;;5073899;28;20411;-73
2022/05/06 09:53:08;;;;;;;0.80;0.70;;;;;;;;;;5057061;28;20447;-73
2022/05/06 09:55:36;;;;;;;2.80;1.00;;;;;;;;;;5072712;28;20415;-72
2022/05/06 09:58:02;;;;;;;0.93;0.77;;;;;;;;;;5071231;28;20481;-72
2022/05/06 10:00:33;;;;;;;2.50;1.47;;;;;;;;;;5056689;28;20431;-75
2022/05/06 10:03:03;;;;;;;1.47;1.20;;;;;;;;;;5055419;28;20963;-74
2022/05/06 10:05:32;;;;;;;1.13;1.03;;;;;;;;;;5056586;28;20840;-73
2022/05/06 10:08:00;;;;;;;0.80;0.70;;;;;;;;;;5074597;28;20488;-73
2022/05/06 10:10:28;;;;;;;0.90;0.63;;;;;;;;;;5072246;28;20946;-73
2022/05/06 10:12:56;;;;;;;0.90;0.80;;;;;;;;;;5074298;28;20423;-72
2022/05/06 10:15:24;;;;;;;2.10;0.90;;;;;;;;;;5072084;28;20943;-72
2022/05/06 10:17:53;;;;;;;1.03;1.00;;;;;;;;;;5072717;28;20439;-72
2022/05/06 10:20:36;;;;;;;0.80;0.60;;;;;;;;;;5072591;28;20442;-71
2022/05/06 10:23:04;;;;;;;1.83;1.20;;;;;;;;;;5054802;28;20445;-71
2022/05/06 10:25:46;;;;;;;3.60;1.00;;;;;;;;;;5056245;28;20488;-72
2022/05/06 10:34:27;;;;;;;1.30;1.17;;;;;;;;;;5073323;28;20439;-72
2022/05/06 10:36:55;;;;;;;1.03;0.87;;;;;;;;;;5072504;28;20490;-75
2022/05/06 10:39:23;;;;;;;0.80;0.70;;;;;;;;;;5071895;28;20831;-73
2022/05/06 10:42:00;;;;;;;0.77;0.60;;;;;;;;;;5072024;28;20487;-72
2022/05/06 10:44:34;;;;;;;1.20;0.80;;;;;;;;;;5089049;28;20999;-71
2022/05/06 10:47:01;;;;;;;1.30;0.83;;;;;;;;;;5071814;28;20426;-73
2022/05/06 10:49:46;;;;;;;1.57;1.37;;;;;;;;;;5076510;28;20458;-73
2022/05/06 10:52:33;;;;;;;0.70;0.60;;;;;;;;;;5074774;28;20845;-73
2022/05/06 10:55:03;;;;;;;0.70;0.60;;;;;;;;;;5056035;28;20439;-72
2022/05/06 10:57:31;;;;;;;1.33;1.03;;;;;;;;;;5071897;28;20404;-73
2022/05/06 11:00:02;;;;;;;2.80;0.67;;;;;;;;;;5073479;28;20427;-73
2022/05/06 11:02:30;;;;;;;0.80;0.60;;;;;;;;;;5072648;28;20826;-72
2022/05/06 11:04:58;;;;;;;0.90;0.70;;;;;;;;;;5072183;28;20447;-72
2022/05/06 11:07:27;;;;;;;0.80;0.70;;;;;;;;;;5071935;28;21061;-72
2022/05/06 11:09:53;;;;;;;1.63;1.00;;;;;;;;;;5071781;28;20482;-73
2022/05/06 11:12:29;;;;;;;1.20;0.70;;;;;;;;;;5072306;28;20423;-73
2022/05/06 11:14:56;;;;;;;0.73;0.60;;;;;;;;;;5088395;28;20442;-72
2022/05/06 11:17:27;;;;;;;0.70;0.50;;;;;;;;;;5050947;28;20424;-73
2022/05/06 11:19:54;;;;;;;0.73;0.63;;;;;;;;;;5070035;28;20839;-73
2022/05/06 11:22:23;;;;;;;0.80;0.80;;;;;;;;;;5072519;28;20463;-74
2022/05/06 11:24:54;;;;;;;0.70;0.60;;;;;;;;;;5072050;28;20851;-73
2022/05/06 11:27:22;;;;;;;0.77;0.70;;;;;;;;;;5070394;28;20459;-74
2022/05/06 11:29:51;;;;;;;0.93;0.83;;;;;;;;;;5055481;28;20504;-74
2022/05/06 11:32:18;;;;;;;0.80;0.80;;;;;;;;;;5073896;28;20892;-71
2022/05/06 11:34:47;;;;;;;1.60;0.70;;;;;;;;;;5071846;28;20415;-75
2022/05/06 11:37:21;;;;;;;1.10;0.73;;;;;;;;;;5055533;28;20911;-72
2022/05/06 11:39:49;;;;;;;2.70;1.23;;;;;;;;;;5072920;28;20406;-72
2022/05/06 11:42:20;;;;;;;0.80;0.70;;;;;;;;;;5055047;28;20493;-71
2022/05/06 11:47:44;;;;;;;1.00;0.90;;;;;;;;;;5093616;28;20439;-72
2022/05/06 11:50:11;;;;;;;1.10;1.00;;;;;;;;;;5076114;28;20453;-72
2022/05/06 11:52:39;;;;;;;0.80;0.70;;;;;;;;;;5072524;28;20478;-75
2022/05/06 11:55:06;;;;;;;1.00;0.90;;;;;;;;;;5070707;28;20431;-73
2022/05/06 11:57:34;;;;;;;1.60;1.33;;;;;;;;;;5071640;28;20434;-73
2022/05/06 12:00:03;;;;;;;0.70;0.60;;;;;;;;;;5074872;28;20452;-73
2022/05/06 12:02:46;;;;;;;0.70;0.60;;;;;;;;;;5076552;28;20447;-73
2022/05/06 12:05:13;;;;;;;1.00;0.80;;;;;;;;;;5075964;28;20421;-72
2022/05/06 12:07:40;;;;;;;0.90;0.80;;;;;;;;;;5081158;28;20450;-74
2022/05/06 12:10:07;;;;;;;0.80;0.63;;;;;;;;;;5056348;28;20447;-73
2022/05/06 12:12:34;;;;;;;0.80;0.80;;;;;;;;;;5057777;28;20966;-73
2022/05/06 12:15:12;;;;;;;1.60;1.50;;;;;;;;;;5059663;28;20454;-73
2022/05/06 12:17:40;;;;;;;0.80;0.70;;;;;;;;;;5068218;28;20538;-73
2022/05/06 12:20:27;;;;;;;0.80;0.80;;;;;;;;;;5051498;28;20440;-71
2022/05/06 12:22:54;;;;;;;2.23;2.03;;;;;;;;;;5073581;28;20554;-74
2022/05/06 12:25:21;;;;;;;1.10;1.00;;;;;;;;;;5078191;28;20466;-74
2022/05/06 12:28:02;;;;;;;3.33;3.03;;;;;;;;;;5069305;28;20435;-72
2022/05/06 12:30:31;;;;;;;0.90;0.80;;;;;;;;;;5055513;28;20552;-72
2022/05/06 12:33:03;;;;;;;1.90;1.13;;;;;;;;;;5071302;28;20497;-73
2022/05/06 12:35:30;;;;;;;1.50;1.23;;;;;;;;;;5070537;28;20442;-72
2022/05/06 12:38:01;;;;;;;1.20;0.73;;;;;;;;;;5057783;28;20500;-72
2022/05/06 12:40:29;;;;;;;1.07;0.63;;;;;;;;;;5074654;28;21013;-72
2022/05/06 12:43:02;;;;;;;1.73;1.30;;;;;;;;;;5059739;28;20895;-73
2022/05/06 12:45:31;;;;;;;1.10;0.80;;;;;;;;;;5054594;28;20468;-72
2022/05/06 12:51:03;;;;;;;1.07;0.80;;;;;;;;;;5050042;28;21018;-74
2022/05/06 12:53:34;;;;;;;0.80;0.60;;;;;;;;;;5036511;28;21002;-74
2022/05/06 12:56:01;;;;;;;1.43;1.10;;;;;;;;;;5053307;28;20439;-73
2022/05/06 12:58:28;;;;;;;0.80;0.80;;;;;;;;;;5074667;28;20993;-72
2022/05/06 13:00:56;;;;;;;1.20;0.80;;;;;;;;;;5090467;28;20959;-72
2022/05/06 13:03:24;;;;;;;1.37;0.80;;;;;;;;;;5073961;28;21009;-73
2022/05/06 13:05:52;;;;;;;0.80;0.70;;;;;;;;;;5089549;28;20461;-73
2022/05/06 13:08:20;;;;;;;0.90;0.80;;;;;;;;;;5072285;28;20766;-72
2022/05/06 13:10:46;;;;;;;0.70;0.60;;;;;;;;;;5072171;28;20420;-74
2022/05/06 13:13:15;;;;;;;1.10;1.00;;;;;;;;;;5074079;28;20435;-73
2022/05/06 13:15:42;;;;;;;1.83;1.63;;;;;;;;;;5070471;28;20447;-75
2022/05/06 13:18:11;;;;;;;3.13;2.93;;;;;;;;;;5071942;28;21176;-74
2022/05/06 13:20:38;;;;;;;1.37;1.20;;;;;;;;;;5072825;28;20907;-74
2022/05/06 13:23:05;;;;;;;0.90;0.70;;;;;;;;;;5071764;28;20600;-73
2022/05/06 13:25:34;;;;;;;0.80;0.80;;;;;;;;;;5072051;28;20791;-73
2022/05/06 13:28:01;;;;;;;1.10;0.80;;;;;;;;;;5073567;28;20954;-76
2022/05/06 13:30:28;;;;;;;1.00;0.70;;;;;;;;;;5072692;28;20435;-72
2022/05/06 13:32:55;;;;;;;0.93;0.83;;;;;;;;;;5090965;28;20966;-71
2022/05/06 13:35:27;;;;;;;1.00;0.83;;;;;;;;;;5074722;28;20976;-72
2022/05/06 13:37:54;;;;;;;0.90;0.80;;;;;;;;;;5073524;28;20439;-72
2022/05/06 13:40:22;;;;;;;1.20;1.10;;;;;;;;;;5073117;28;20447;-72
2022/05/06 13:42:48;;;;;;;1.00;0.70;;;;;;;;;;5066114;28;20475;-73
2022/05/06 13:45:16;;;;;;;0.90;0.70;;;;;;;;;;5074583;28;20963;-76
2022/05/06 13:47:43;;;;;;;1.00;0.83;;;;;;;;;;5058880;28;20798;-74
2022/05/06 13:50:11;;;;;;;2.77;1.33;;;;;;;;;;5074071;28;20865;-72
2022/05/06 13:52:39;;;;;;;1.47;1.37;;;;;;;;;;5080381;28;20463;-73
2022/05/06 13:55:07;;;;;;;1.10;1.00;;;;;;;;;;5068721;28;20446;-72
2022/05/06 14:00:32;;;;;;;1.00;0.90;;;;;;;;;;5067972;28;20493;-74
2022/05/06 14:03:03;;;;;;;1.00;0.80;;;;;;;;;;5046429;28;20490;-75
2022/05/06 14:05:30;;;;;;;1.07;0.97;;;;;;;;;;5063996;28;20435;-73
2022/05/06 14:08:00;;;;;;;0.77;0.67;;;;;;;;;;5081120;28;20458;-71
2022/05/06 14:10:30;;;;;;;1.30;1.07;;;;;;;;;;5049533;28;20432;-72
2022/05/06 14:12:57;;;;;;;1.10;0.93;;;;;;;;;;5079520;28;20435;-72
2022/05/06 14:15:24;;;;;;;5.53;1.23;;;;;;;;;;5066299;28;20439;-72
2022/05/06 14:17:54;;;;;;;1.20;1.10;;;;;;;;;;5073019;28;20435;-72
2022/05/06 14:20:21;;;;;;;1.40;1.30;;;;;;;;;;5090076;28;20555;-72
2022/05/06 14:22:48;;;;;;;1.00;0.90;;;;;;;;;;5056417;28;20566;-73
2022/05/06 14:25:17;;;;;;;1.50;1.20;;;;;;;;;;5072841;28;20418;-73
2022/05/06 14:27:46;;;;;;;1.13;1.07;;;;;;;;;;5072170;28;20429;-72
2022/05/06 14:30:13;;;;;;;2.07;1.97;;;;;;;;;;5072063;28;20462;-72
2022/05/06 14:32:41;;;;;;;1.27;1.17;;;;;;;;;;5072493;28;20485;-72
2022/05/06 14:35:19;;;;;;;2.33;1.10;;;;;;;;;;5074926;28;20494;-72
2022/05/06 14:37:51;;;;;;;1.67;1.33;;;;;;;;;;5075168;28;20454;-71
2022/05/06 14:40:19;;;;;;;0.80;0.70;;;;;;;;;;5075075;28;20477;-71
2022/05/06 14:42:46;;;;;;;4.10;0.87;;;;;;;;;;5074140;28;20510;-73
2022/05/06 14:45:13;;;;;;;0.90;0.90;;;;;;;;;;5071652;28;20454;-72
2022/05/06 14:47:40;;;;;;;1.27;1.17;;;;;;;;;;5073155;28;20879;-73
2022/05/06 14:50:08;;;;;;;1.00;0.90;;;;;;;;;;5055416;28;20486;-72
2022/05/06 14:52:35;;;;;;;0.97;0.90;;;;;;;;;;5057200;28;20458;-73
2022/05/06 14:55:05;;;;;;;0.90;0.73;;;;;;;;;;5072782;28;20887;-72
2022/05/06 14:57:35;;;;;;;1.37;1.27;;;;;;;;;;5090715;28;20455;-71
2022/05/06 15:00:03;;;;;;;0.80;0.70;;;;;;;;;;5089478;28;20859;-71
2022/05/06 15:02:31;;;;;;;0.90;0.73;;;;;;;;;;5055647;28;20463;-72
2022/05/06 15:04:58;;;;;;;0.80;0.60;;;;;;;;;;5070452;28;20422;-71
2022/05/06 15:07:25;;;;;;;2.23;1.33;;;;;;;;;;5073276;28;20443;-70
2022/05/06 15:09:52;;;;;;;0.80;0.77;;;;;;;;;;5070576;28;20540;-71
2022/05/06 15:12:19;;;;;;;0.80;0.80;;;;;;;;;;5072778;28;20443;-73
2022/05/06 15:14:49;;;;;;;1.17;1.00;;;;;;;;;;5072917;28;20517;-74
2022/05/06 15:17:18;;;;;;;1.10;0.93;;;;;;;;;;5052858;28;20443;-74
2022/05/06 15:19:46;;;;;;;3.90;1.00;;;;;;;;;;5072396;28;20406;-75
2022/05/06 15:22:14;;;;;;;1.00;0.80;;;;;;;;;;5086872;28;20458;-74
2022/05/06 15:24:41;;;;;;;0.90;0.80;;;;;;;;;;5054057;28;20501;-74
2022/05/06 15:27:12;;;;;;;0.90;0.80;;;;;;;;;;5073644;28;20415;-74
2022/05/06 15:29:39;;;;;;;1.73;1.07;;;;;;;;;;5055585;28;20417;-73
2022/05/06 15:32:08;;;;;;;1.23;1.17;;;;;;;;;;5052518;28;20406;-74
2022/05/06 15:34:36;;;;;;;0.80;0.73;;;;;;;;;;5037772;28;20475;-75
2022/05/06 15:37:03;;;;;;;0.80;0.80;;;;;;;;;;5072358;28;20443;-75
2022/05/06 15:39:32;;;;;;;1.00;0.90;;;;;;;;;;5055152;28;20410;-75
2022/05/06 15:41:59;;;;;;;1.63;1.53;;;;;;;;;;5083835;28;20468;-75
2022/05/06 15:44:32;;;;;;;1.07;0.97;;;;;;;;;;5065489;28;20398;-75
2022/05/06 15:47:01;;;;;;;0.87;0.80;;;;;;;;;;5072456;28;20390;-74
2022/05/06 15:49:29;;;;;;;1.63;1.13;;;;;;;;;;5088902;28;20435;-74
2022/05/06 15:51:56;;;;;;;0.80;0.70;;;;;;;;;;5066084;28;20418;-74
2022/05/06 15:54:23;;;;;;;3.73;1.07;;;;;;;;;;5081978;28;20440;-74